Southampton, MA (01073)

5:07 AM EDT on August 30, 2015 (GMT -0400)
Easthampton, MA | | Change Station
CLOSE
Current Station
Personal Weather Station
Location: Easthampton, MA
Elevation: 260 ft
Nearby Weather Stations

Elev 260 ft 42.25 °N, 72.68 °W | Updated 1 second ago

Clear
Clear
60.6 °F
Feels Like 60.6 °F
N
0.0
Wind Variable Wind from SSW
Gusts 0.0 mph

Today
High -- | Low -- °F
--% Chance of Precip.
Yesterday
High -- | Low -- °F
Precip. -- in
6:13 AM 7:28 PM
Waxing Gibbous, 99% visible
Pressure 30.07 in
Visibility 1.2 miles
Clouds Clear
Dew Point 61 °F
Humidity 100%
Rainfall 0.00 in
Snow Depth Not available.
UV 0.0 out of 12
Pollen 9.40 out of 12
Air Quality Not available.
Flu Activity Not available.
SPECI KBAF 300904Z AUTO 00000KT 1 1/4SM BR CLR 16/14 A3007 RMK AO2 T01560144
Pressure 30.07 in
Visibility 1.2 miles
Clouds Clear
Dew Point 61 °F
Humidity 100%
Rainfall 0.00 in
Snow Depth Not available.
UV 0.0 out of 12
Pollen 9.40 out of 12
Air Quality Not available.
Flu Activity Not available.
SPECI KBAF 300904Z AUTO 00000KT 1 1/4SM BR CLR 16/14 A3007 RMK AO2 T01560144

10-Day Weather Forecast

×

Almanac

Astronomy

Aug. 30, 2015 Rise Set
Actual Time
Civil Twilight
Nautical Twilight
Astronomical Twilight
Moon
Length of Visible Light
Length of Day
Tomorrow will be .
, % of the Moon is Illuminated

Today's Extremes

State Highs State Lows

Community

WunderPhotos

Upload Photos

1,850,909 photos uploaded!

WunderBlogs® & News

Nearby

Air Quality

  Air Quality AQ Index Pollutant
Not available.

Snow Depth

Station Depth Elevation

Earthquake Activity

City Distance Mag. Time & Date
Minimum magnitude displayed is 2.5.

Coastal Water Temperatures

Place Temperature

Stations

Nearby Weather Stations

Station Location Temp. Windchill Dew Point Humidity Wind Precip. Elev Updated Type